createdAt,value
2023-05-19T00:00:40.235Z,14.40
2023-05-19T00:04:05.492Z,14.41
2023-05-19T00:07:31.130Z,14.37
2023-05-19T00:10:53.058Z,14.38
2023-05-19T00:14:17.093Z,14.40
2023-05-19T00:17:42.770Z,14.34
2023-05-19T00:21:04.421Z,14.23
2023-05-19T00:24:29.133Z,14.23
2023-05-19T00:27:50.729Z,14.19
2023-05-19T00:31:12.639Z,14.19
2023-05-19T00:34:37.242Z,14.09
2023-05-19T00:37:58.861Z,14.12
2023-05-19T00:41:21.073Z,14.09
2023-05-19T00:44:42.757Z,14.12
2023-05-19T00:48:04.531Z,14.10
2023-05-19T00:51:27.578Z,14.16
2023-05-19T00:54:51.703Z,14.17
2023-05-19T00:58:18.439Z,14.20
2023-05-19T01:01:45.831Z,14.12
2023-05-19T01:05:10.914Z,14.05
2023-05-19T01:08:36.273Z,14.17
2023-05-19T01:12:03.702Z,14.03
2023-05-19T01:15:27.065Z,14.09
2023-05-19T01:19:22.731Z,14.20
2023-05-19T01:22:59.740Z,14.17
2023-05-19T01:26:26.032Z,14.24
2023-05-19T01:30:06.219Z,14.27
2023-05-19T01:33:31.446Z,14.23
2023-05-19T01:36:55.466Z,14.17
2023-05-19T01:40:18.322Z,14.13
2023-05-19T01:43:40.766Z,13.99
2023-05-19T01:47:02.969Z,14.01
2023-05-19T01:50:24.625Z,14.14
2023-05-19T01:53:46.313Z,14.08
2023-05-19T01:57:25.898Z,14.10
2023-05-19T02:00:57.349Z,14.12
2023-05-19T02:04:29.222Z,14.08
2023-05-19T02:08:19.769Z,13.96
2023-05-19T02:11:44.377Z,13.86
2023-05-19T02:15:09.802Z,13.89
2023-05-19T02:18:33.284Z,13.82
2023-05-19T02:21:57.547Z,13.76
2023-05-19T02:25:19.250Z,13.69
2023-05-19T02:28:43.380Z,13.69
2023-05-19T02:32:07.882Z,13.74
2023-05-19T02:35:29.699Z,13.69
2023-05-19T02:38:51.326Z,13.66
2023-05-19T02:42:14.715Z,13.66
2023-05-19T02:45:36.355Z,13.64
2023-05-19T02:48:58.030Z,13.71
2023-05-19T02:52:22.121Z,13.74
2023-05-19T02:55:43.736Z,13.78
2023-05-19T02:59:07.678Z,13.72
2023-05-19T03:02:29.607Z,13.64
2023-05-19T03:05:51.324Z,13.61
2023-05-19T03:09:15.720Z,13.65
2023-05-19T03:12:37.393Z,13.74
2023-05-19T03:15:59.424Z,13.82
2023-05-19T03:19:23.590Z,13.93
2023-05-19T03:22:45.337Z,13.85
2023-05-19T03:26:09.419Z,13.75
2023-05-19T03:29:31.136Z,13.76
2023-05-19T03:32:55.259Z,13.79
2023-05-19T03:36:19.612Z,13.75
2023-05-19T03:39:41.199Z,13.96
2023-05-19T03:43:02.858Z,13.89
2023-05-19T03:46:24.588Z,13.98
2023-05-19T03:49:46.362Z,13.98
2023-05-19T03:53:08.174Z,14.01
2023-05-19T03:56:30.045Z,14.05
2023-05-19T03:59:51.619Z,14.14
2023-05-19T04:03:13.308Z,14.19
2023-05-19T04:06:37.725Z,14.20
2023-05-19T04:09:59.416Z,14.31
2023-05-19T04:13:21.728Z,14.45
2023-05-19T04:16:43.475Z,14.47
2023-05-19T04:20:08.326Z,14.57
2023-05-19T04:23:32.683Z,14.50
2023-05-19T04:26:56.784Z,14.44
2023-05-19T04:30:22.576Z,14.43
2023-05-19T04:33:48.037Z,14.48
2023-05-19T04:37:10.362Z,14.60
2023-05-19T04:40:32.270Z,14.65
2023-05-19T04:43:54.241Z,14.68
2023-05-19T04:47:15.941Z,14.72
2023-05-19T04:50:42.294Z,14.64
2023-05-19T04:54:04.134Z,14.61
2023-05-19T04:57:25.765Z,14.58
2023-05-19T05:00:51.862Z,14.71
2023-05-19T05:04:13.570Z,14.84
2023-05-19T05:07:35.269Z,14.99
2023-05-19T05:10:59.649Z,14.98
2023-05-19T05:14:21.614Z,14.60
2023-05-19T05:17:46.467Z,14.81
2023-05-19T05:21:08.674Z,15.10
2023-05-19T05:24:33.058Z,15.36
2023-05-19T05:27:54.741Z,15.51
2023-05-19T05:31:17.098Z,15.50
2023-05-19T05:34:40.330Z,15.46
2023-05-19T05:38:04.805Z,15.39
2023-05-19T05:41:27.400Z,15.33
2023-05-19T05:44:51.250Z,15.49
2023-05-19T05:48:15.540Z,15.63
2023-05-19T05:51:37.755Z,15.83
2023-05-19T05:55:02.592Z,16.16
2023-05-19T05:58:24.415Z,16.01
2023-05-19T06:01:46.208Z,15.90
2023-05-19T06:05:12.435Z,16.38
2023-05-19T06:08:34.165Z,16.40
2023-05-19T06:11:56.920Z,16.33
2023-05-19T06:15:18.579Z,16.00
2023-05-19T06:18:40.357Z,16.11
2023-05-19T06:22:02.070Z,16.05
2023-05-19T06:25:25.892Z,15.84
2023-05-19T06:28:49.967Z,15.98
2023-05-19T06:32:11.658Z,16.21
2023-05-19T06:35:33.280Z,16.43
2023-05-19T06:38:58.352Z,16.64
2023-05-19T06:42:22.684Z,16.36
2023-05-19T06:45:44.368Z,16.33
2023-05-19T06:49:08.208Z,16.39
2023-05-19T06:52:29.846Z,16.45
2023-05-19T06:55:58.651Z,16.30
2023-05-19T06:59:23.367Z,16.26
2023-05-19T07:02:45.036Z,16.60
2023-05-19T07:06:08.285Z,17.10
2023-05-19T07:09:32.689Z,17.84
2023-05-19T07:12:57.209Z,17.76
2023-05-19T07:16:18.897Z,17.66
2023-05-19T07:19:40.622Z,17.70
2023-05-19T07:23:05.294Z,17.66
2023-05-19T07:26:27.397Z,17.82
2023-05-19T07:29:51.123Z,17.87
2023-05-19T07:33:15.039Z,18.31
2023-05-19T07:36:37.063Z,18.89
2023-05-19T07:39:58.876Z,18.76
2023-05-19T07:43:20.551Z,18.70
2023-05-19T07:46:42.227Z,18.85
2023-05-19T07:50:04.434Z,19.06
2023-05-19T07:53:26.199Z,18.69
2023-05-19T07:56:48.336Z,18.80
2023-05-19T08:00:12.110Z,19.20
2023-05-19T08:03:34.061Z,20.17
2023-05-19T08:06:55.763Z,20.08
2023-05-19T08:10:17.693Z,20.37
2023-05-19T08:13:39.616Z,19.97
2023-05-19T08:17:01.211Z,19.20
2023-05-19T08:20:24.391Z,19.85
2023-05-19T08:23:46.381Z,21.02
2023-05-19T08:27:10.712Z,21.53
2023-05-19T08:30:32.530Z,21.92
2023-05-19T08:33:56.689Z,22.01
2023-05-19T08:37:20.815Z,22.02
2023-05-19T08:40:43.093Z,22.19
2023-05-19T08:44:05.208Z,22.29
2023-05-19T08:47:28.043Z,22.19
2023-05-19T08:51:11.834Z,21.85
2023-05-19T08:54:44.898Z,21.61
2023-05-19T08:58:07.264Z,22.40
2023-05-19T09:01:31.671Z,21.74
2023-05-19T09:04:56.069Z,20.72
2023-05-19T09:08:20.447Z,20.75
2023-05-19T09:11:46.348Z,21.39
2023-05-19T09:15:09.711Z,22.23
2023-05-19T09:18:33.971Z,22.22
2023-05-19T09:22:05.352Z,22.84
2023-05-19T09:25:32.139Z,22.81
2023-05-19T09:28:58.282Z,22.31
2023-05-19T09:32:29.004Z,21.85
2023-05-19T09:35:56.781Z,21.50
2023-05-19T09:39:20.149Z,21.49
2023-05-19T09:42:44.574Z,21.61
2023-05-19T09:46:14.911Z,21.32
2023-05-19T09:49:45.947Z,21.33
2023-05-19T09:53:07.598Z,21.91
2023-05-19T09:56:34.575Z,22.66
2023-05-19T09:59:57.982Z,23.08
2023-05-19T10:03:20.426Z,23.00
2023-05-19T10:06:42.419Z,23.10
2023-05-19T10:10:04.898Z,23.66
2023-05-19T10:13:28.987Z,23.59
2023-05-19T10:16:57.353Z,23.56
2023-05-19T10:20:19.116Z,23.56
2023-05-19T10:23:48.127Z,23.82
2023-05-19T10:27:13.298Z,24.18
2023-05-19T10:30:37.868Z,24.54
2023-05-19T10:34:22.305Z,24.58
2023-05-19T10:37:46.818Z,24.67
2023-05-19T10:41:26.933Z,24.45
2023-05-19T10:45:01.148Z,24.79
2023-05-19T10:48:23.315Z,25.12
2023-05-19T10:51:50.178Z,25.10
2023-05-19T10:55:17.641Z,24.68
2023-05-19T10:58:40.952Z,24.28
2023-05-19T11:02:09.250Z,23.92
2023-05-19T11:05:33.919Z,24.32
2023-05-19T11:09:00.919Z,24.69
2023-05-19T11:12:25.365Z,23.93
2023-05-19T11:15:47.213Z,23.76
2023-05-19T11:19:09.974Z,23.86
2023-05-19T11:22:37.164Z,23.55
2023-05-19T11:26:02.293Z,23.42
2023-05-19T11:29:24.468Z,23.31
2023-05-19T11:32:48.254Z,23.12
2023-05-19T11:36:13.425Z,23.62
2023-05-19T11:39:35.733Z,23.48
2023-05-19T11:42:58.044Z,23.38
2023-05-19T11:46:23.037Z,23.35
2023-05-19T11:49:45.992Z,23.45
2023-05-19T11:53:08.366Z,23.79
2023-05-19T11:56:40.721Z,23.51
2023-05-19T12:00:09.166Z,23.94
2023-05-19T12:03:33.232Z,24.44
2023-05-19T12:06:55.068Z,24.04
2023-05-19T12:10:31.804Z,23.77
2023-05-19T12:14:00.817Z,23.70
2023-05-19T12:17:25.180Z,23.61
2023-05-19T12:20:51.908Z,23.14
2023-05-19T12:24:16.122Z,22.83
2023-05-19T12:27:38.255Z,23.15
2023-05-19T12:31:00.221Z,23.42
2023-05-19T12:34:22.001Z,23.49
2023-05-19T12:37:43.838Z,23.74
2023-05-19T12:41:07.075Z,23.87
2023-05-19T12:44:31.373Z,24.01
2023-05-19T12:47:56.262Z,23.87
2023-05-19T12:51:21.630Z,23.51
2023-05-19T12:54:43.594Z,23.42
2023-05-19T12:58:07.021Z,23.34
2023-05-19T13:01:30.386Z,23.19
2023-05-19T13:04:54.268Z,23.41
2023-05-19T13:08:18.353Z,23.61
2023-05-19T13:11:40.766Z,23.90
2023-05-19T13:15:02.490Z,23.93
2023-05-19T13:18:24.511Z,24.10
2023-05-19T13:21:51.242Z,23.93
2023-05-19T13:25:12.960Z,23.84
2023-05-19T13:28:34.981Z,23.84
2023-05-19T13:31:57.353Z,23.96
2023-05-19T13:35:22.584Z,23.99
2023-05-19T13:38:44.304Z,23.66
2023-05-19T13:42:08.444Z,23.87
2023-05-19T13:45:30.515Z,24.03
2023-05-19T13:48:52.393Z,23.99
2023-05-19T13:52:16.799Z,24.18
2023-05-19T13:55:38.476Z,24.27
2023-05-19T13:59:00.146Z,24.35
2023-05-19T14:02:21.888Z,24.51
2023-05-19T14:05:43.537Z,24.54
2023-05-19T14:09:06.536Z,24.28
2023-05-19T14:12:40.409Z,24.16
2023-05-19T14:16:09.128Z,23.92
2023-05-19T14:19:33.314Z,23.82
2023-05-19T14:22:55.596Z,24.03
2023-05-19T14:26:17.294Z,24.06
2023-05-19T14:29:38.956Z,23.99
2023-05-19T14:33:00.705Z,24.11
2023-05-19T14:36:22.542Z,24.35
2023-05-19T14:39:44.136Z,24.51
2023-05-19T14:43:05.815Z,24.45
2023-05-19T14:46:29.877Z,24.31
2023-05-19T14:49:56.637Z,24.00
2023-05-19T14:53:18.342Z,23.74
2023-05-19T14:56:40.018Z,23.69
2023-05-19T15:00:04.017Z,23.80
2023-05-19T15:03:25.916Z,23.89
2023-05-19T15:06:52.230Z,23.97
2023-05-19T15:10:25.285Z,24.03
2023-05-19T15:13:46.910Z,24.11
2023-05-19T15:17:13.437Z,24.21
2023-05-19T15:20:35.282Z,24.21
2023-05-19T15:23:57.134Z,24.21
2023-05-19T15:27:18.799Z,24.03
2023-05-19T15:30:40.793Z,23.76
2023-05-19T15:34:02.489Z,23.74
2023-05-19T15:37:26.348Z,23.66
2023-05-19T15:40:48.124Z,23.72
2023-05-19T15:44:12.437Z,23.58
2023-05-19T15:47:41.341Z,23.51
2023-05-19T15:51:06.295Z,23.63
2023-05-19T15:54:30.103Z,23.55
2023-05-19T15:57:51.758Z,23.48
2023-05-19T16:01:14.237Z,23.38
2023-05-19T16:04:35.944Z,23.31
2023-05-19T16:07:57.609Z,23.24
2023-05-19T16:11:20.679Z,23.22
2023-05-19T16:14:47.495Z,23.27
2023-05-19T16:18:11.870Z,23.19
2023-05-19T16:21:36.117Z,23.25
2023-05-19T16:24:58.967Z,23.28
2023-05-19T16:28:25.029Z,23.15
2023-05-19T16:31:46.922Z,23.10
2023-05-19T16:35:09.343Z,22.98
2023-05-19T16:38:34.083Z,22.86
2023-05-19T16:41:55.769Z,22.90
2023-05-19T16:45:19.923Z,22.73
2023-05-19T16:48:41.623Z,22.57
2023-05-19T16:52:03.789Z,22.48
2023-05-19T16:55:27.771Z,22.40
2023-05-19T16:58:49.450Z,22.29
2023-05-19T17:02:11.143Z,22.19
2023-05-19T17:05:36.281Z,22.19
2023-05-19T17:08:57.942Z,22.15
2023-05-19T17:12:19.632Z,22.06
2023-05-19T17:15:43.194Z,22.08
2023-05-19T17:19:05.297Z,22.00
2023-05-19T17:22:30.428Z,21.85
2023-05-19T17:25:56.794Z,21.81
2023-05-19T17:29:20.849Z,21.70
2023-05-19T17:32:42.663Z,21.67
2023-05-19T17:36:09.826Z,21.61
2023-05-19T17:39:31.511Z,21.56
2023-05-19T17:42:58.097Z,21.56
2023-05-19T17:46:19.877Z,21.42
2023-05-19T17:49:41.786Z,21.39
2023-05-19T17:53:03.817Z,21.26
2023-05-19T17:56:26.645Z,21.16
2023-05-19T17:59:50.755Z,21.00
2023-05-19T18:03:12.924Z,20.89
2023-05-19T18:06:37.318Z,20.79
2023-05-19T18:10:01.205Z,20.68
2023-05-19T18:13:26.174Z,20.55
2023-05-19T18:16:49.618Z,20.36
2023-05-19T18:20:12.173Z,20.16
2023-05-19T18:23:33.783Z,20.06
2023-05-19T18:26:55.440Z,20.02
2023-05-19T18:30:20.052Z,20.10
2023-05-19T18:33:42.182Z,19.96
2023-05-19T18:37:03.874Z,20.02
2023-05-19T18:40:25.548Z,19.89
2023-05-19T18:43:47.609Z,19.81
2023-05-19T18:47:09.310Z,19.75
2023-05-19T18:50:33.937Z,19.74
2023-05-19T18:54:00.704Z,19.72
2023-05-19T18:57:24.935Z,19.54
2023-05-19T19:00:47.088Z,19.44
2023-05-19T19:04:09.057Z,19.38
2023-05-19T19:07:31.479Z,19.38
2023-05-19T19:10:54.702Z,19.23
2023-05-19T19:14:16.341Z,19.10
2023-05-19T19:17:40.129Z,19.27
2023-05-19T19:21:06.046Z,19.20
2023-05-19T19:24:28.516Z,19.26
2023-05-19T19:27:52.831Z,19.04
2023-05-19T19:31:14.572Z,18.82
2023-05-19T19:34:36.362Z,18.82
2023-05-19T19:37:58.652Z,18.80
2023-05-19T19:41:20.397Z,18.93
2023-05-19T19:44:44.312Z,18.85
2023-05-19T19:48:07.227Z,18.72
2023-05-19T19:51:31.763Z,18.63
2023-05-19T19:54:56.185Z,18.53
2023-05-19T19:58:20.160Z,18.44
2023-05-19T20:01:44.691Z,18.58
2023-05-19T20:05:06.974Z,18.70
2023-05-19T20:08:29.209Z,18.75
2023-05-19T20:11:52.861Z,18.65
2023-05-19T20:15:14.872Z,18.70
2023-05-19T20:18:36.552Z,18.89
2023-05-19T20:22:00.601Z,18.89
2023-05-19T20:25:24.485Z,18.77
2023-05-19T20:28:48.401Z,18.73
2023-05-19T20:32:12.368Z,18.72
2023-05-19T20:35:34.197Z,18.70
2023-05-19T20:38:56.028Z,18.59
2023-05-19T20:42:17.730Z,18.68
2023-05-19T20:45:39.403Z,18.59
2023-05-19T20:49:01.161Z,18.55
2023-05-19T20:52:22.799Z,18.65
2023-05-19T20:55:45.857Z,18.55
2023-05-19T20:59:07.496Z,18.53
2023-05-19T21:02:29.255Z,18.56
2023-05-19T21:05:51.494Z,18.61
2023-05-19T21:09:14.663Z,18.59
2023-05-19T21:12:38.784Z,18.41
2023-05-19T21:16:03.165Z,18.30
2023-05-19T21:19:24.864Z,18.30
2023-05-19T21:22:46.687Z,18.27
2023-05-19T21:26:10.614Z,18.28
2023-05-19T21:29:32.458Z,18.24
2023-05-19T21:32:58.940Z,18.20
2023-05-19T21:36:20.998Z,18.20
2023-05-19T21:39:45.103Z,18.13
2023-05-19T21:43:12.716Z,18.08
2023-05-19T21:46:34.331Z,18.07
2023-05-19T21:49:58.715Z,17.91
2023-05-19T21:53:28.080Z,17.94
2023-05-19T21:56:49.749Z,18.00
2023-05-19T22:00:13.332Z,18.00
2023-05-19T22:03:37.503Z,17.94
2023-05-19T22:06:59.224Z,17.84
2023-05-19T22:10:21.590Z,17.84
2023-05-19T22:13:45.875Z,17.89
2023-05-19T22:17:07.589Z,17.73
2023-05-19T22:20:31.790Z,17.83
2023-05-19T22:23:53.675Z,17.84
2023-05-19T22:27:17.636Z,17.82
2023-05-19T22:30:40.873Z,17.75
2023-05-19T22:34:05.826Z,17.72
2023-05-19T22:37:29.052Z,17.67
2023-05-19T22:40:53.038Z,17.59
2023-05-19T22:44:18.561Z,17.63
2023-05-19T22:47:40.567Z,17.66
2023-05-19T22:51:09.845Z,17.66
2023-05-19T22:54:31.564Z,17.69
2023-05-19T22:57:53.595Z,17.73
2023-05-19T23:01:15.364Z,17.67
2023-05-19T23:04:39.591Z,17.61
2023-05-19T23:08:03.874Z,17.65
2023-05-19T23:11:25.843Z,17.76
2023-05-19T23:14:47.498Z,17.62
2023-05-19T23:18:09.217Z,17.57
2023-05-19T23:21:32.493Z,17.61
2023-05-19T23:24:56.479Z,17.76
2023-05-19T23:28:18.212Z,17.55
2023-05-19T23:31:41.208Z,17.35
2023-05-19T23:35:10.893Z,17.35
2023-05-19T23:38:32.554Z,17.19
2023-05-19T23:41:57.193Z,17.12
2023-05-19T23:45:18.963Z,17.06
2023-05-19T23:48:43.092Z,16.98
2023-05-19T23:52:04.871Z,17.06
2023-05-19T23:55:29.108Z,17.07
2023-05-19T23:58:50.941Z,16.97
